createdAt,value
2023-03-10T00:02:24.956Z,97868.31
2023-03-10T00:06:29.310Z,97846.03
2023-03-10T00:10:31.180Z,97844.25
2023-03-10T00:14:32.983Z,97836.09
2023-03-10T00:18:34.778Z,97829.75
2023-03-10T00:22:36.575Z,97837.56
2023-03-10T00:26:41.078Z,97819.59
2023-03-10T00:30:42.899Z,97802.25
2023-03-10T00:34:44.731Z,97822.44
2023-03-10T00:38:46.779Z,97811.84
2023-03-10T00:42:48.611Z,97802.06
2023-03-10T00:46:52.734Z,97787.66
2023-03-10T00:50:55.395Z,97767.03
2023-03-10T00:54:57.304Z,97767.22
2023-03-10T00:59:00.079Z,97754.75
2023-03-10T01:03:01.900Z,97747.63
2023-03-10T01:07:03.814Z,97734.63
2023-03-10T01:11:05.718Z,97723.06
2023-03-10T01:15:08.561Z,97720.38
2023-03-10T01:19:10.323Z,97708.44
2023-03-10T01:23:21.323Z,97707.59
2023-03-10T01:27:23.099Z,97684.16
2023-03-10T01:31:24.970Z,97682.97
2023-03-10T01:35:26.856Z,97663.50
2023-03-10T01:39:28.659Z,97664.56
2023-03-10T01:43:32.716Z,97645.97
2023-03-10T01:47:34.563Z,97639.34
2023-03-10T01:51:36.456Z,97627.72
2023-03-10T01:55:41.757Z,97618.09
2023-03-10T01:59:43.572Z,97618.09
2023-03-10T02:04:34.921Z,97612.91
2023-03-10T02:08:44.502Z,97609.97
2023-03-10T02:12:46.487Z,97602.13
2023-03-10T02:16:48.252Z,97599.72
2023-03-10T02:21:08.832Z,97590.50
2023-03-10T02:25:46.393Z,97577.47
2023-03-10T02:30:21.322Z,97564.41
2023-03-10T02:34:24.468Z,97573.03
2023-03-10T02:38:26.357Z,97569.22
2023-03-10T02:42:34.452Z,97571.81
2023-03-10T02:46:36.640Z,97557.38
2023-03-10T02:50:39.212Z,97549.94
2023-03-10T02:54:40.973Z,97551.72
2023-03-10T02:58:42.795Z,97555.38
2023-03-10T03:02:51.181Z,97526.44
2023-03-10T03:06:52.909Z,97534.06
2023-03-10T03:11:02.209Z,97537.09
2023-03-10T03:15:11.221Z,97527.59
2023-03-10T03:19:20.212Z,97514.78
2023-03-10T03:23:29.240Z,97504.16
2023-03-10T03:27:31.195Z,97505.94
2023-03-10T03:31:33.205Z,97509.38
2023-03-10T03:35:36.492Z,97506.94
2023-03-10T03:39:38.377Z,97488.09
2023-03-10T03:43:40.473Z,97476.25
2023-03-10T03:47:42.580Z,97475.03
2023-03-10T03:51:44.293Z,97464.59
2023-03-10T03:55:46.124Z,97460.19
2023-03-10T03:59:47.915Z,97450.16
2023-03-10T04:03:50.427Z,97439.72
2023-03-10T04:07:52.653Z,97428.50
2023-03-10T04:11:54.671Z,97426.88
2023-03-10T04:15:59.861Z,97426.84
2023-03-10T04:20:07.362Z,97433.72
2023-03-10T04:24:09.929Z,97422.84
2023-03-10T04:28:11.852Z,97407.38
2023-03-10T04:32:13.855Z,97398.50
2023-03-10T04:36:15.994Z,97394.31
2023-03-10T04:40:18.194Z,97391.72
2023-03-10T04:44:30.553Z,97383.69
2023-03-10T04:48:33.541Z,97391.88
2023-03-10T04:52:35.365Z,97397.91
2023-03-10T04:56:37.167Z,97385.06
2023-03-10T05:01:02.420Z,97387.03
2023-03-10T05:05:05.861Z,97395.88
2023-03-10T05:09:07.615Z,97393.84
2023-03-10T05:13:15.671Z,97390.66
2023-03-10T05:17:17.484Z,97389.25
2023-03-10T05:21:21.527Z,97379.84
2023-03-10T05:25:23.473Z,97383.06
2023-03-10T05:29:28.461Z,97367.78
2023-03-10T05:33:31.561Z,97374.63
2023-03-10T05:37:40.032Z,97378.00
2023-03-10T05:41:41.923Z,97374.75
2023-03-10T05:45:45.222Z,97368.38
2023-03-10T05:49:48.423Z,97364.53
2023-03-10T05:53:50.332Z,97356.91
2023-03-10T05:57:54.501Z,97360.53
2023-03-10T06:01:56.440Z,97359.31
2023-03-10T06:05:58.556Z,97362.59
2023-03-10T06:10:00.557Z,97360.09
2023-03-10T06:14:02.792Z,97365.47
2023-03-10T06:18:04.750Z,97361.81
2023-03-10T06:22:06.767Z,97365.41
2023-03-10T06:26:14.779Z,97374.88
2023-03-10T06:30:17.018Z,97356.00
2023-03-10T06:34:18.941Z,97375.03
2023-03-10T06:38:21.417Z,97364.75
2023-03-10T06:42:23.399Z,97355.09
2023-03-10T06:46:25.863Z,97362.84
2023-03-10T06:50:30.427Z,97353.16
2023-03-10T06:54:33.364Z,97350.69
2023-03-10T06:58:36.292Z,97368.03
2023-03-10T07:02:38.900Z,97359.81
2023-03-10T07:06:40.766Z,97364.00
2023-03-10T07:10:51.491Z,97373.13
2023-03-10T07:14:53.957Z,97363.50
2023-03-10T07:18:59.388Z,97366.13
2023-03-10T07:23:01.362Z,97360.59
2023-03-10T07:27:03.413Z,97372.28
2023-03-10T07:31:11.222Z,97374.38
2023-03-10T07:35:13.892Z,97367.38
2023-03-10T07:39:15.905Z,97370.84
2023-03-10T07:43:17.866Z,97364.16
2023-03-10T07:47:22.453Z,97355.69
2023-03-10T07:51:25.649Z,97364.47
2023-03-10T07:55:27.778Z,97344.72
2023-03-10T07:59:29.639Z,97351.13
2023-03-10T08:03:32.167Z,97348.31
2023-03-10T08:07:34.220Z,97367.06
2023-03-10T08:11:36.065Z,97366.25
2023-03-10T08:15:39.351Z,97358.88
2023-03-10T08:19:43.004Z,97357.09
2023-03-10T08:23:45.084Z,97368.22
2023-03-10T08:27:49.864Z,97364.09
2023-03-10T08:31:51.779Z,97359.47
2023-03-10T08:36:05.877Z,97371.75
2023-03-10T08:40:09.143Z,97359.19
2023-03-10T08:44:17.143Z,97358.00
2023-03-10T08:48:19.217Z,97347.38
2023-03-10T08:52:21.008Z,97343.34
2023-03-10T08:56:25.079Z,97346.19
2023-03-10T09:00:27.327Z,97336.34
2023-03-10T09:04:29.144Z,97366.84
2023-03-10T09:08:33.848Z,97362.84
2023-03-10T09:12:38.701Z,97339.84
2023-03-10T09:16:41.345Z,97367.28
2023-03-10T09:20:43.469Z,97356.72
2023-03-10T09:24:45.329Z,97365.66
2023-03-10T09:28:49.398Z,97379.41
2023-03-10T09:32:51.547Z,97368.16
2023-03-10T09:36:53.852Z,97370.19
2023-03-10T09:41:13.484Z,97374.34
2023-03-10T09:45:39.534Z,97375.13
2023-03-10T09:49:51.534Z,97379.28
2023-03-10T09:54:33.574Z,97367.03
2023-03-10T09:58:50.525Z,97355.81
2023-03-10T10:03:08.659Z,97356.34
2023-03-10T10:07:22.655Z,97352.50
2023-03-10T10:11:24.683Z,97344.47
2023-03-10T10:15:35.625Z,97341.84
2023-03-10T10:19:39.856Z,97348.69
2023-03-10T10:23:47.466Z,97329.00
2023-03-10T10:27:52.970Z,97351.19
2023-03-10T10:32:12.854Z,97342.63
2023-03-10T10:36:15.963Z,97352.66
2023-03-10T10:40:30.112Z,97367.81
2023-03-10T10:44:39.811Z,97364.94
2023-03-10T10:48:46.966Z,97372.03
2023-03-10T10:52:51.643Z,97353.16
2023-03-10T10:57:04.590Z,97360.81
2023-03-10T11:01:12.648Z,97356.81
2023-03-10T11:05:24.409Z,97352.50
2023-03-10T11:09:26.277Z,97354.09
2023-03-10T11:13:55.998Z,97364.06
2023-03-10T11:18:15.773Z,97359.66
2023-03-10T11:23:03.697Z,97356.88
2023-03-10T11:27:33.883Z,97352.38
2023-03-10T11:31:57.867Z,97331.75
2023-03-10T11:36:23.065Z,97324.34
2023-03-10T11:40:55.135Z,97314.88
2023-03-10T11:45:31.411Z,97320.66
2023-03-10T11:49:37.591Z,97308.94
2023-03-10T11:53:46.684Z,97301.41
2023-03-10T11:57:52.874Z,97304.59
2023-03-10T12:02:03.154Z,97309.09
2023-03-10T12:06:05.684Z,97293.19
2023-03-10T12:10:18.412Z,97286.94
2023-03-10T12:14:20.251Z,97281.34
2023-03-10T12:18:22.010Z,97272.03
2023-03-10T12:22:43.480Z,97271.19
2023-03-10T12:26:45.247Z,97271.13
2023-03-10T12:31:06.641Z,97269.19
2023-03-10T12:35:44.346Z,97273.59
2023-03-10T12:39:46.614Z,97263.38
2023-03-10T12:44:07.656Z,97264.41
2023-03-10T12:48:17.001Z,97265.44
2023-03-10T12:52:40.542Z,97260.34
2023-03-10T12:57:30.814Z,97258.13
2023-03-10T13:01:43.234Z,97262.63
2023-03-10T13:06:11.088Z,97242.34
2023-03-10T13:10:18.503Z,97226.56
2023-03-10T13:14:32.691Z,97227.63
2023-03-10T13:18:35.197Z,97225.47
2023-03-10T13:22:37.045Z,97219.31
2023-03-10T13:26:38.869Z,97207.31
2023-03-10T13:30:40.996Z,97196.63
2023-03-10T13:34:42.824Z,97199.41
2023-03-10T13:38:45.062Z,97203.13
2023-03-10T13:42:48.108Z,97202.94
2023-03-10T13:47:00.971Z,97186.88
2023-03-10T13:51:22.788Z,97182.72
2023-03-10T13:55:24.823Z,97180.78
2023-03-10T13:59:29.916Z,97176.16
2023-03-10T14:03:31.900Z,97155.88
2023-03-10T14:07:38.628Z,97160.72
2023-03-10T14:11:52.169Z,97170.06
2023-03-10T14:16:05.232Z,97167.41
2023-03-10T14:20:18.345Z,97179.69
2023-03-10T14:24:24.233Z,97264.19
2023-03-10T14:28:35.141Z,97259.31
2023-03-10T14:32:39.950Z,97251.63
2023-03-10T14:36:42.388Z,97264.75
2023-03-10T14:40:49.858Z,97261.69
2023-03-10T14:44:51.781Z,97267.88
2023-03-10T14:48:54.185Z,97278.13
2023-03-10T14:53:00.713Z,97286.22
2023-03-10T14:57:03.080Z,97275.03
2023-03-10T15:01:05.680Z,97264.28
2023-03-10T15:05:24.689Z,97284.22
2023-03-10T15:09:29.616Z,97264.00
2023-03-10T15:13:31.586Z,97281.47
2023-03-10T15:17:33.415Z,97276.16
2023-03-10T15:21:35.347Z,97271.81
2023-03-10T15:25:37.360Z,97260.13
2023-03-10T15:29:39.398Z,97270.66
2023-03-10T15:38:02.629Z,97257.06
2023-03-10T15:42:04.549Z,97266.31
2023-03-10T15:46:07.825Z,97242.16
2023-03-10T15:50:11.484Z,97241.69
2023-03-10T15:54:13.461Z,97242.50
2023-03-10T15:58:15.369Z,97235.53
2023-03-10T16:02:18.264Z,97233.09
2023-03-10T16:06:27.088Z,97242.72
2023-03-10T16:10:29.241Z,97232.72
2023-03-10T16:14:31.220Z,97242.88
2023-03-10T16:18:34.079Z,97236.81
2023-03-10T16:22:40.615Z,97257.72
2023-03-10T16:26:44.732Z,97246.44
2023-03-10T16:30:48.755Z,97242.94
2023-03-10T16:34:53.386Z,97253.13
2023-03-10T16:38:55.531Z,97242.44
2023-03-10T16:42:57.361Z,97230.91
2023-03-10T16:46:59.493Z,97246.59
2023-03-10T16:51:08.084Z,97239.84
2023-03-10T16:55:20.106Z,97243.81
2023-03-10T16:59:24.711Z,97230.59
2023-03-10T17:03:26.569Z,97225.34
2023-03-10T17:07:28.335Z,97232.25
2023-03-10T17:11:33.293Z,97239.72
2023-03-10T17:15:35.397Z,97241.31
2023-03-10T17:19:37.179Z,97260.50
2023-03-10T17:23:38.970Z,97254.16
2023-03-10T17:27:42.468Z,97238.81
2023-03-10T17:31:50.291Z,97235.72
2023-03-10T17:35:55.564Z,97246.91
2023-03-10T17:39:57.644Z,97246.78
2023-03-10T17:43:59.838Z,97252.50
2023-03-10T17:48:01.819Z,97234.09
2023-03-10T17:52:04.015Z,97237.03
2023-03-10T17:56:06.680Z,97243.91
2023-03-10T18:00:10.185Z,97239.94
2023-03-10T18:04:12.307Z,97232.75
2023-03-10T18:08:14.443Z,97238.63
2023-03-10T18:12:16.664Z,97230.59
2023-03-10T18:16:21.493Z,97234.44
2023-03-10T18:20:28.337Z,97222.63
2023-03-10T18:24:32.956Z,97221.44
2023-03-10T18:28:43.309Z,97214.47
2023-03-10T18:32:45.413Z,97194.81
2023-03-10T18:36:54.473Z,97201.88
2023-03-10T18:41:02.512Z,97197.84
2023-03-10T18:45:04.832Z,97188.84
2023-03-10T18:49:11.774Z,97198.47
2023-03-10T18:53:14.112Z,97193.25
2023-03-10T18:57:17.758Z,97187.84
2023-03-10T19:01:23.204Z,97184.84
2023-03-10T19:05:25.333Z,97183.63
2023-03-10T19:09:27.825Z,97185.81
2023-03-10T19:13:32.095Z,97193.44
2023-03-10T19:21:58.305Z,97180.47
2023-03-10T19:26:00.377Z,97177.03
2023-03-10T19:30:02.341Z,97165.78
2023-03-10T19:57:20.096Z,97192.19
2023-03-10T20:01:28.104Z,97192.59
2023-03-10T20:05:36.179Z,97197.22
2023-03-10T20:09:39.671Z,97197.81
2023-03-10T20:13:47.172Z,97199.00
2023-03-10T20:17:49.821Z,97188.19
2023-03-10T20:21:55.717Z,97196.75
2023-03-10T20:26:08.842Z,97193.78
2023-03-10T20:30:18.997Z,97193.41
2023-03-10T20:34:22.318Z,97197.06
2023-03-10T20:38:24.352Z,97196.25
2023-03-10T20:42:26.482Z,97192.94
2023-03-10T20:46:28.568Z,97208.16
2023-03-10T20:50:30.531Z,97194.75
2023-03-10T20:54:32.439Z,97207.97
2023-03-10T20:58:34.300Z,97207.56
2023-03-10T21:02:39.076Z,97202.56
2023-03-10T21:06:40.888Z,97196.56
2023-03-10T21:10:48.893Z,97203.34
2023-03-10T21:14:51.394Z,97215.78
2023-03-10T21:18:53.469Z,97202.28
2023-03-10T21:22:55.275Z,97203.50
2023-03-10T21:26:59.450Z,97207.91
2023-03-10T21:31:01.450Z,97199.84
2023-03-10T21:35:04.601Z,97196.06
2023-03-10T21:39:08.917Z,97191.78
2023-03-10T21:43:11.104Z,97202.22
2023-03-10T21:47:12.919Z,97206.63
2023-03-10T21:51:16.690Z,97215.84
2023-03-10T21:55:24.389Z,97207.78
2023-03-10T21:59:26.205Z,97202.94
2023-03-10T22:03:28.152Z,97201.47
2023-03-10T22:07:29.980Z,97210.84
2023-03-10T22:11:31.820Z,97200.06
2023-03-10T22:15:33.695Z,97212.00
2023-03-10T22:19:35.545Z,97218.88
2023-03-10T22:23:37.292Z,97228.47
2023-03-10T22:27:41.464Z,97229.56
2023-03-10T22:31:43.299Z,97229.84
2023-03-10T22:35:52.206Z,97230.28
2023-03-10T22:39:54.052Z,97236.56
2023-03-10T22:43:57.028Z,97228.03
2023-03-10T22:48:01.479Z,97247.22
2023-03-10T22:52:06.992Z,97245.13
2023-03-10T22:56:08.792Z,97246.13
2023-03-10T23:00:18.752Z,97241.13
2023-03-10T23:04:20.690Z,97254.28
2023-03-10T23:08:22.468Z,97265.31
2023-03-10T23:12:24.318Z,97254.91
2023-03-10T23:16:26.175Z,97268.59
2023-03-10T23:20:39.951Z,97268.69
2023-03-10T23:24:41.793Z,97273.03
2023-03-10T23:28:45.076Z,97279.38
2023-03-10T23:32:49.297Z,97290.81
2023-03-10T23:36:51.481Z,97329.44
2023-03-10T23:40:53.621Z,97362.34
2023-03-10T23:44:55.405Z,97401.09
2023-03-10T23:48:57.382Z,97413.13
2023-03-10T23:53:00.708Z,97429.97
2023-03-10T23:57:03.051Z,97425.66
